createdAt,value
2022-12-18T00:01:20.247Z,32.25
2022-12-18T00:03:48.447Z,34.75
2022-12-18T00:06:16.516Z,34.47
2022-12-18T00:08:44.772Z,32.03
2022-12-18T00:11:17.905Z,33.95
2022-12-18T00:13:45.853Z,34.72
2022-12-18T00:16:14.530Z,34.85
2022-12-18T00:18:42.324Z,35.00
2022-12-18T00:21:11.397Z,37.22
2022-12-18T00:23:39.470Z,32.45
2022-12-18T00:26:08.959Z,30.48
2022-12-18T00:28:36.492Z,29.83
2022-12-18T00:31:08.947Z,30.98
2022-12-18T00:33:36.889Z,29.70
2022-12-18T00:36:05.505Z,31.60
2022-12-18T00:38:33.182Z,31.88
2022-12-18T00:41:00.920Z,33.75
2022-12-18T00:43:28.972Z,32.17
2022-12-18T00:45:56.834Z,30.13
2022-12-18T00:48:24.433Z,30.55
2022-12-18T00:50:52.320Z,31.15
2022-12-18T00:53:20.001Z,30.63
2022-12-18T00:55:47.714Z,28.77
2022-12-18T00:58:16.242Z,31.70
2022-12-18T01:00:44.227Z,30.00
2022-12-18T01:03:14.503Z,27.83
2022-12-18T01:05:42.895Z,27.40
2022-12-18T01:08:10.755Z,25.77
2022-12-18T01:10:38.178Z,23.08
2022-12-18T01:13:05.666Z,24.65
2022-12-18T01:15:33.410Z,28.00
2022-12-18T01:18:00.892Z,23.50
2022-12-18T01:20:28.710Z,24.65
2022-12-18T01:22:56.403Z,25.33
2022-12-18T01:25:23.957Z,26.15
2022-12-18T01:27:51.740Z,23.27
2022-12-18T01:30:19.102Z,23.30
2022-12-18T01:32:46.553Z,23.23
2022-12-18T01:35:14.047Z,24.88
2022-12-18T01:37:41.508Z,23.80
2022-12-18T01:40:09.675Z,24.73
2022-12-18T01:42:37.073Z,24.08
2022-12-18T01:45:13.723Z,23.73
2022-12-18T01:47:46.533Z,32.13
2022-12-18T01:50:32.104Z,22.05
2022-12-18T01:53:16.942Z,22.27
2022-12-18T01:55:49.939Z,22.13
2022-12-18T01:58:17.772Z,23.08
2022-12-18T02:00:45.728Z,20.25
2022-12-18T02:03:13.923Z,19.08
2022-12-18T02:05:51.119Z,21.85
2022-12-18T02:08:22.606Z,21.27
2022-12-18T02:11:05.513Z,22.30
2022-12-18T02:13:42.236Z,17.23
2022-12-18T02:16:17.319Z,21.95
2022-12-18T02:18:47.312Z,29.60
2022-12-18T02:21:22.905Z,20.65
2022-12-18T02:23:50.413Z,25.60
2022-12-18T02:26:23.965Z,21.50
2022-12-18T02:28:54.616Z,21.85
2022-12-18T02:31:25.773Z,21.30
2022-12-18T02:33:55.542Z,22.00
2022-12-18T02:36:24.005Z,22.10
2022-12-18T02:38:52.972Z,23.05
2022-12-18T02:41:21.102Z,22.38
2022-12-18T02:43:55.512Z,22.45
2022-12-18T02:46:43.122Z,24.90
2022-12-18T02:49:17.614Z,20.90
2022-12-18T02:51:44.976Z,22.65
2022-12-18T02:54:22.475Z,24.60
2022-12-18T02:56:55.801Z,23.85
2022-12-18T02:59:32.564Z,23.48
2022-12-18T03:02:14.193Z,23.13
2022-12-18T03:04:45.481Z,24.77
2022-12-18T03:07:17.727Z,22.63
2022-12-18T03:09:48.432Z,25.73
2022-12-18T03:12:25.056Z,25.00
2022-12-18T03:15:03.042Z,23.80
2022-12-18T03:17:32.828Z,22.65
2022-12-18T03:20:02.005Z,23.02
2022-12-18T03:22:32.009Z,23.10
2022-12-18T03:25:00.245Z,23.63
2022-12-18T03:27:28.535Z,24.83
2022-12-18T03:30:15.190Z,23.33
2022-12-18T03:32:42.599Z,24.83
2022-12-18T03:35:11.340Z,23.02
2022-12-18T03:37:38.832Z,22.65
2022-12-18T03:40:07.635Z,22.33
2022-12-18T03:42:55.907Z,22.75
2022-12-18T03:45:23.432Z,23.65
2022-12-18T03:47:59.805Z,22.95
2022-12-18T03:50:27.522Z,22.25
2022-12-18T03:53:24.583Z,23.35
2022-12-18T03:55:53.796Z,21.58
2022-12-18T03:58:26.582Z,20.50
2022-12-18T04:00:55.866Z,21.25
2022-12-18T04:03:26.671Z,21.63
2022-12-18T04:05:56.111Z,18.83
2022-12-18T04:08:24.112Z,21.13
2022-12-18T04:10:51.663Z,21.50
2022-12-18T04:13:34.292Z,22.40
2022-12-18T04:16:02.755Z,22.92
2022-12-18T04:18:30.209Z,22.58
2022-12-18T04:20:57.710Z,24.98
2022-12-18T04:23:25.112Z,24.05
2022-12-18T04:25:52.523Z,27.50
2022-12-18T04:28:20.047Z,22.55
2022-12-18T04:30:48.006Z,24.45
2022-12-18T04:33:15.891Z,23.15
2022-12-18T04:35:44.136Z,22.98
2022-12-18T04:38:11.881Z,24.70
2022-12-18T04:40:39.703Z,24.15
2022-12-18T04:43:09.229Z,23.02
2022-12-18T04:45:36.712Z,23.75
2022-12-18T04:48:04.657Z,24.58
2022-12-18T04:50:32.282Z,23.58
2022-12-18T04:52:59.913Z,23.23
2022-12-18T04:55:27.695Z,24.25
2022-12-18T04:57:55.552Z,22.80
2022-12-18T05:00:23.294Z,22.60
2022-12-18T05:02:50.920Z,29.25
2022-12-18T05:05:18.712Z,23.88
2022-12-18T05:07:46.104Z,22.00
2022-12-18T05:10:13.565Z,20.77
2022-12-18T05:12:59.139Z,21.42
2022-12-18T05:15:29.093Z,20.40
2022-12-18T05:17:57.566Z,21.95
2022-12-18T05:20:26.109Z,20.80
2022-12-18T05:22:53.916Z,19.80
2022-12-18T05:25:21.542Z,19.65
2022-12-18T05:27:48.988Z,21.30
2022-12-18T05:30:16.932Z,22.70
2022-12-18T05:32:44.721Z,26.15
2022-12-18T05:35:13.035Z,25.33
2022-12-18T05:37:43.237Z,23.27
2022-12-18T05:40:11.553Z,22.83
2022-12-18T05:42:39.058Z,22.05
2022-12-18T05:45:06.853Z,26.98
2022-12-18T05:47:34.243Z,22.55
2022-12-18T05:50:01.622Z,21.23
2022-12-18T05:52:29.212Z,28.77
2022-12-18T05:54:56.741Z,22.15
2022-12-18T05:57:24.252Z,21.65
2022-12-18T05:59:51.945Z,21.10
2022-12-18T06:02:22.345Z,22.23
2022-12-18T06:04:49.965Z,21.70
2022-12-18T06:07:17.422Z,20.40
2022-12-18T06:09:44.814Z,21.10
2022-12-18T06:12:12.197Z,22.40
2022-12-18T06:14:39.972Z,25.35
2022-12-18T06:17:07.446Z,21.70
2022-12-18T06:19:34.953Z,19.83
2022-12-18T06:22:02.344Z,21.67
2022-12-18T06:24:29.981Z,18.75
2022-12-18T06:26:57.412Z,20.90
2022-12-18T06:29:24.804Z,19.00
2022-12-18T06:31:52.488Z,19.52
2022-12-18T06:34:20.222Z,18.63
2022-12-18T06:36:47.673Z,19.67
2022-12-18T06:39:15.236Z,17.70
2022-12-18T06:41:42.856Z,20.08
2022-12-18T06:44:10.362Z,21.40
2022-12-18T06:46:39.275Z,21.10
2022-12-18T06:49:06.802Z,20.70
2022-12-18T06:51:34.353Z,21.52
2022-12-18T06:54:01.712Z,20.92
2022-12-18T06:56:29.330Z,22.35
2022-12-18T06:58:56.656Z,24.80
2022-12-18T07:01:24.593Z,19.65
2022-12-18T07:03:56.323Z,23.10
2022-12-18T07:06:24.595Z,24.92
2022-12-18T07:08:52.614Z,25.67
2022-12-18T07:11:20.172Z,19.08
2022-12-18T07:13:48.156Z,24.10
2022-12-18T07:16:21.084Z,19.70
2022-12-18T07:18:51.663Z,15.00
2022-12-18T07:21:20.431Z,20.58
2022-12-18T07:23:49.503Z,16.13
2022-12-18T07:26:18.803Z,19.83
2022-12-18T07:28:46.392Z,21.90
2022-12-18T07:31:15.799Z,20.55
2022-12-18T07:33:43.513Z,21.63
2022-12-18T07:36:12.079Z,20.23
2022-12-18T07:38:39.730Z,20.52
2022-12-18T07:41:11.927Z,21.75
2022-12-18T07:43:40.334Z,17.50
2022-12-18T07:46:09.685Z,20.42
2022-12-18T07:48:37.222Z,23.15
2022-12-18T07:51:06.274Z,28.25
2022-12-18T07:53:34.746Z,19.45
2022-12-18T07:56:26.563Z,19.70
2022-12-18T07:58:51.073Z,18.85
2022-12-18T08:01:18.959Z,18.45
2022-12-18T08:03:46.877Z,24.52
2022-12-18T08:06:15.533Z,22.98
2022-12-18T08:08:43.491Z,24.80
2022-12-18T08:11:11.053Z,34.63
2022-12-18T08:13:39.317Z,26.45
2022-12-18T08:16:08.493Z,33.60
2022-12-18T08:18:36.907Z,30.92
2022-12-18T08:21:18.069Z,19.80
2022-12-18T08:23:46.495Z,21.05
2022-12-18T08:26:14.383Z,25.75
2022-12-18T08:28:42.791Z,20.40
2022-12-18T08:31:10.654Z,22.25
2022-12-18T08:33:39.435Z,23.45
2022-12-18T08:36:07.866Z,23.13
2022-12-18T08:38:35.396Z,21.63
2022-12-18T08:41:03.484Z,23.25
2022-12-18T08:43:49.833Z,23.60
2022-12-18T08:46:17.664Z,20.27
2022-12-18T08:48:45.602Z,20.88
2022-12-18T08:51:13.143Z,19.48
2022-12-18T08:53:41.029Z,20.73
2022-12-18T08:56:09.595Z,21.63
2022-12-18T08:58:36.912Z,18.88
2022-12-18T09:01:14.856Z,20.85
2022-12-18T09:03:43.750Z,21.75
2022-12-18T09:06:15.832Z,20.02
2022-12-18T09:08:44.039Z,17.20
2022-12-18T09:11:22.153Z,20.08
2022-12-18T09:13:49.703Z,20.40
2022-12-18T09:16:17.759Z,20.65
2022-12-18T09:18:46.346Z,21.10
2022-12-18T09:21:17.827Z,21.17
2022-12-18T09:23:45.733Z,21.55
2022-12-18T09:26:13.436Z,21.58
2022-12-18T09:28:41.320Z,21.30
2022-12-18T09:31:09.985Z,20.60
2022-12-18T09:33:37.713Z,21.17
2022-12-18T09:36:07.356Z,19.88
2022-12-18T09:38:35.444Z,20.85
2022-12-18T09:41:06.753Z,20.27
2022-12-18T09:43:51.994Z,20.60
2022-12-18T09:46:27.280Z,19.45
2022-12-18T09:48:56.654Z,20.17
2022-12-18T09:51:26.865Z,20.67
2022-12-18T09:54:14.482Z,22.83
2022-12-18T09:56:43.654Z,19.35
2022-12-18T09:59:26.132Z,18.70
2022-12-18T10:01:53.825Z,17.38
2022-12-18T10:04:21.415Z,17.70
2022-12-18T10:06:52.083Z,18.40
2022-12-18T10:09:48.675Z,17.52
2022-12-18T10:12:16.393Z,17.83
2022-12-18T10:14:53.083Z,16.42
2022-12-18T10:17:35.804Z,17.23
2022-12-18T10:20:06.995Z,14.27
2022-12-18T10:22:42.455Z,16.73
2022-12-18T10:25:18.823Z,19.10
2022-12-18T10:27:46.792Z,17.80
2022-12-18T10:30:15.803Z,18.13
2022-12-18T10:32:43.413Z,16.65
2022-12-18T10:35:17.323Z,16.63
2022-12-18T10:40:18.182Z,15.85
2022-12-18T10:42:48.133Z,17.08
2022-12-18T10:45:16.722Z,17.38
2022-12-18T10:47:49.796Z,17.42
2022-12-18T10:50:22.040Z,18.85
2022-12-18T10:52:56.023Z,17.67
2022-12-18T10:55:24.016Z,18.67
2022-12-18T10:57:51.711Z,18.90
2022-12-18T11:00:25.092Z,18.13
2022-12-18T11:02:53.078Z,19.17
2022-12-18T11:05:32.232Z,19.17
2022-12-18T11:08:00.750Z,17.33
2022-12-18T11:10:48.404Z,17.90
2022-12-18T11:13:20.560Z,17.08
2022-12-18T11:15:48.220Z,16.48
2022-12-18T11:18:43.307Z,15.77
2022-12-18T11:21:11.842Z,18.55
2022-12-18T11:23:46.645Z,17.90
2022-12-18T11:26:15.821Z,11.45
2022-12-18T11:28:48.822Z,18.08
2022-12-18T11:31:19.433Z,17.17
2022-12-18T11:34:26.935Z,16.77
2022-12-18T11:36:50.093Z,16.95
2022-12-18T11:39:23.239Z,18.65
2022-12-18T11:42:09.496Z,18.02
2022-12-18T11:44:59.545Z,17.67
2022-12-18T11:47:31.024Z,18.90
2022-12-18T11:50:01.452Z,17.67
2022-12-18T11:52:33.643Z,16.58
2022-12-18T11:55:03.263Z,18.77
2022-12-18T11:57:38.886Z,17.45
2022-12-18T12:00:22.244Z,17.33
2022-12-18T12:03:08.689Z,17.37
2022-12-18T12:05:59.604Z,17.15
2022-12-18T12:08:38.992Z,18.48
2022-12-18T12:11:19.953Z,17.55
2022-12-18T12:14:02.885Z,18.23
2022-12-18T12:16:49.392Z,16.77
2022-12-18T12:19:35.984Z,18.58
2022-12-18T12:22:03.498Z,18.95
2022-12-18T12:24:46.212Z,18.05
2022-12-18T12:27:20.943Z,20.30
2022-12-18T12:29:49.513Z,19.35
2022-12-18T12:32:16.982Z,18.38
2022-12-18T12:35:17.882Z,20.48
2022-12-18T12:38:03.736Z,36.38
2022-12-18T12:40:52.413Z,31.88
2022-12-18T12:43:22.655Z,59.58
2022-12-18T12:45:50.909Z,22.27
2022-12-18T12:48:34.082Z,21.33
2022-12-18T12:51:04.052Z,20.05
2022-12-18T12:53:35.644Z,19.38
2022-12-18T12:56:04.596Z,27.20
2022-12-18T12:58:38.115Z,22.63
2022-12-18T13:01:11.550Z,20.10
2022-12-18T13:04:11.533Z,21.02
2022-12-18T13:06:55.895Z,17.88
2022-12-18T13:09:24.252Z,18.83
2022-12-18T13:12:10.426Z,17.80
2022-12-18T13:14:39.302Z,17.83
2022-12-18T13:17:39.362Z,18.52
2022-12-18T13:20:11.822Z,19.13
2022-12-18T13:22:42.534Z,25.38
2022-12-18T13:25:28.493Z,18.95
2022-12-18T13:28:16.195Z,24.95
2022-12-18T13:30:50.166Z,17.73
2022-12-18T13:33:19.155Z,19.23
2022-12-18T13:35:52.508Z,25.48
2022-12-18T13:38:23.247Z,19.05
2022-12-18T13:40:51.612Z,24.63
2022-12-18T13:43:22.405Z,20.45
2022-12-18T13:45:51.952Z,18.73
2022-12-18T13:48:21.472Z,18.65
2022-12-18T13:50:54.502Z,19.63
2022-12-18T13:53:24.173Z,18.10
2022-12-18T13:55:53.214Z,17.92
2022-12-18T13:58:20.956Z,16.90
2022-12-18T14:00:48.961Z,18.20
2022-12-18T14:03:23.063Z,17.08
2022-12-18T14:06:09.582Z,15.50
2022-12-18T14:08:39.579Z,16.60
2022-12-18T14:11:08.656Z,16.45
2022-12-18T14:13:39.996Z,17.67
2022-12-18T14:16:08.744Z,17.98
2022-12-18T14:18:53.052Z,19.88
2022-12-18T14:23:47.992Z,18.52
2022-12-18T14:26:23.253Z,17.08
2022-12-18T14:28:50.832Z,19.63
2022-12-18T14:31:25.950Z,19.88
2022-12-18T14:33:54.148Z,18.88
2022-12-18T14:36:26.119Z,18.40
2022-12-18T14:39:00.922Z,19.90
2022-12-18T14:41:29.899Z,18.73
2022-12-18T14:44:06.902Z,17.85
2022-12-18T14:46:35.035Z,16.17
2022-12-18T14:49:04.334Z,18.25
2022-12-18T14:51:33.013Z,17.35
2022-12-18T14:54:04.525Z,16.90
2022-12-18T14:56:33.751Z,17.40
2022-12-18T14:59:01.243Z,18.38
2022-12-18T15:01:29.064Z,17.55
2022-12-18T15:03:57.572Z,17.40
2022-12-18T15:06:33.423Z,16.88
2022-12-18T15:09:02.346Z,16.13
2022-12-18T15:11:31.863Z,16.45
2022-12-18T15:14:00.810Z,16.42
2022-12-18T15:16:28.634Z,17.13
2022-12-18T15:18:56.352Z,18.13
2022-12-18T15:21:23.806Z,19.35
2022-12-18T15:23:53.134Z,18.60
2022-12-18T15:26:22.704Z,18.73
2022-12-18T15:28:51.791Z,16.77
2022-12-18T15:31:21.642Z,17.38
2022-12-18T15:33:53.525Z,17.35
2022-12-18T15:36:26.405Z,18.33
2022-12-18T15:38:57.886Z,17.92
2022-12-18T15:41:33.946Z,16.88
2022-12-18T15:44:03.862Z,17.77
2022-12-18T15:46:32.188Z,19.58
2022-12-18T15:49:02.792Z,17.63
2022-12-18T15:51:35.443Z,17.90
2022-12-18T15:54:05.133Z,20.55
2022-12-18T15:56:51.447Z,18.20
2022-12-18T15:59:20.274Z,17.10
2022-12-18T16:01:54.169Z,19.38
2022-12-18T16:04:23.032Z,17.63
2022-12-18T16:07:13.944Z,17.88
2022-12-18T16:09:40.134Z,16.23
2022-12-18T16:12:08.916Z,15.02
2022-12-18T16:14:36.454Z,17.10
2022-12-18T16:17:07.921Z,17.00
2022-12-18T16:19:35.363Z,18.27
2022-12-18T16:22:03.015Z,16.33
2022-12-18T16:24:34.692Z,17.88
2022-12-18T16:27:02.312Z,18.77
2022-12-18T16:29:30.783Z,17.92
2022-12-18T16:31:59.312Z,18.45
2022-12-18T16:34:29.722Z,17.77
2022-12-18T16:37:03.302Z,27.27
2022-12-18T16:39:34.555Z,17.98
2022-12-18T16:42:04.845Z,17.67
2022-12-18T16:44:33.682Z,17.38
2022-12-18T16:47:03.283Z,17.95
2022-12-18T16:49:31.324Z,17.35
2022-12-18T16:51:58.772Z,19.08
2022-12-18T16:54:26.431Z,17.90
2022-12-18T16:56:53.980Z,17.77
2022-12-18T16:59:21.435Z,18.90
2022-12-18T17:01:50.452Z,21.08
2022-12-18T17:04:18.152Z,19.00
2022-12-18T17:06:52.252Z,16.83
2022-12-18T17:09:26.703Z,20.25
2022-12-18T17:11:54.802Z,18.77
2022-12-18T17:14:23.844Z,20.38
2022-12-18T17:17:19.364Z,25.90
2022-12-18T17:19:39.391Z,19.65
2022-12-18T17:22:08.382Z,18.20
2022-12-18T17:24:36.155Z,18.15
2022-12-18T17:27:04.222Z,18.60
2022-12-18T17:29:31.733Z,17.98
2022-12-18T17:32:00.264Z,19.25
2022-12-18T17:34:28.144Z,18.63
2022-12-18T17:36:56.084Z,19.63
2022-12-18T17:39:23.473Z,18.65
2022-12-18T17:41:51.224Z,18.73
2022-12-18T17:44:19.394Z,23.75
2022-12-18T17:46:47.719Z,19.95
2022-12-18T17:49:15.575Z,20.42
2022-12-18T17:51:43.423Z,21.63
2022-12-18T17:54:11.720Z,19.20
2022-12-18T17:56:39.312Z,22.83
2022-12-18T17:59:07.437Z,20.00
2022-12-18T18:01:40.954Z,19.80
2022-12-18T18:04:11.821Z,20.83
2022-12-18T18:06:39.597Z,19.90
2022-12-18T18:09:15.920Z,20.27
2022-12-18T18:12:04.053Z,20.52
2022-12-18T18:14:31.666Z,18.60
2022-12-18T18:17:04.108Z,19.23
2022-12-18T18:19:32.922Z,18.77
2022-12-18T18:22:00.499Z,19.50
2022-12-18T18:24:28.692Z,20.27
2022-12-18T18:26:56.252Z,20.33
2022-12-18T18:29:26.679Z,19.88
2022-12-18T18:31:55.718Z,19.08
2022-12-18T18:34:24.427Z,19.17
2022-12-18T18:36:52.137Z,18.67
2022-12-18T18:39:19.805Z,19.80
2022-12-18T18:41:48.446Z,17.88
2022-12-18T18:44:16.825Z,20.48
2022-12-18T18:46:44.594Z,21.17
2022-12-18T18:49:13.887Z,21.17
2022-12-18T18:51:42.117Z,22.35
2022-12-18T18:54:10.163Z,22.67
2022-12-18T18:57:03.942Z,21.67
2022-12-18T18:59:31.725Z,21.20
2022-12-18T19:02:00.694Z,21.20
2022-12-18T19:04:32.832Z,22.42
2022-12-18T19:07:00.352Z,23.33
2022-12-18T19:09:28.715Z,21.05
2022-12-18T19:12:15.286Z,22.63
2022-12-18T19:14:42.953Z,20.98
2022-12-18T19:17:10.636Z,22.45
2022-12-18T19:19:38.515Z,19.77
2022-12-18T19:22:06.321Z,20.27
2022-12-18T19:24:33.753Z,21.50
2022-12-18T19:27:01.384Z,21.48
2022-12-18T19:29:28.922Z,20.02
2022-12-18T19:31:56.839Z,19.98
2022-12-18T19:34:24.433Z,19.90
2022-12-18T19:36:56.486Z,20.88
2022-12-18T19:39:27.096Z,20.85
2022-12-18T19:41:54.980Z,21.05
2022-12-18T19:44:22.386Z,21.10
2022-12-18T19:46:53.005Z,20.77
2022-12-18T19:49:20.826Z,22.95
2022-12-18T19:51:50.296Z,26.17
2022-12-18T19:54:18.578Z,21.15
2022-12-18T19:56:46.785Z,20.95
2022-12-18T19:59:14.683Z,16.02
2022-12-18T20:01:43.225Z,20.02
2022-12-18T20:04:11.219Z,20.92
2022-12-18T20:06:52.373Z,23.42
2022-12-18T20:09:20.401Z,21.17
2022-12-18T20:11:49.058Z,22.38
2022-12-18T20:14:22.338Z,22.75
2022-12-18T20:16:51.753Z,20.73
2022-12-18T20:19:19.877Z,19.23
2022-12-18T20:21:48.560Z,22.60
2022-12-18T20:24:16.214Z,22.55
2022-12-18T20:26:44.072Z,23.13
2022-12-18T20:29:11.694Z,22.38
2022-12-18T20:31:39.219Z,23.33
2022-12-18T20:34:07.137Z,21.85
2022-12-18T20:36:36.573Z,21.17
2022-12-18T20:39:07.684Z,22.35
2022-12-18T20:41:39.103Z,22.45
2022-12-18T20:44:15.548Z,21.23
2022-12-18T20:46:50.344Z,19.45
2022-12-18T20:49:17.757Z,23.45
2022-12-18T20:51:45.323Z,22.75
2022-12-18T20:54:12.973Z,21.55
2022-12-18T20:56:40.713Z,22.60
2022-12-18T20:59:08.424Z,19.65
2022-12-18T21:01:36.489Z,20.45
2022-12-18T21:04:06.521Z,22.23
2022-12-18T21:06:34.132Z,23.02
2022-12-18T21:09:02.056Z,20.95
2022-12-18T21:11:49.494Z,22.15
2022-12-18T21:14:18.552Z,21.20
2022-12-18T21:16:46.193Z,20.80
2022-12-18T21:19:14.972Z,21.05
2022-12-18T21:21:42.825Z,20.38
2022-12-18T21:24:11.072Z,22.02
2022-12-18T21:26:45.451Z,19.05
2022-12-18T21:29:14.843Z,19.02
2022-12-18T21:31:42.723Z,21.05
2022-12-18T21:34:15.008Z,23.25
2022-12-18T21:36:42.507Z,20.23
2022-12-18T21:39:10.387Z,22.08
2022-12-18T21:41:56.552Z,21.92
2022-12-18T21:44:24.471Z,22.15
2022-12-18T21:46:58.199Z,20.42
2022-12-18T21:49:29.235Z,21.52
2022-12-18T21:51:57.855Z,21.70
2022-12-18T21:54:26.696Z,23.17
2022-12-18T21:57:04.164Z,22.83
2022-12-18T21:59:31.843Z,23.80
2022-12-18T22:02:01.123Z,21.67
2022-12-18T22:04:29.166Z,24.13
2022-12-18T22:06:57.293Z,24.75
2022-12-18T22:09:25.503Z,23.20
2022-12-18T22:11:53.952Z,22.83
2022-12-18T22:14:22.276Z,22.95
2022-12-18T22:16:49.933Z,24.13
2022-12-18T22:19:18.266Z,24.02
2022-12-18T22:21:47.055Z,23.52
2022-12-18T22:24:16.116Z,21.42
2022-12-18T22:26:44.013Z,22.80
2022-12-18T22:29:34.523Z,23.25
2022-12-18T22:32:02.775Z,21.67
2022-12-18T22:34:36.308Z,21.38
2022-12-18T22:37:04.194Z,21.85
2022-12-18T22:39:31.927Z,23.33
2022-12-18T22:42:00.438Z,21.80
2022-12-18T22:44:28.705Z,23.17
2022-12-18T22:47:06.469Z,22.45
2022-12-18T22:49:35.835Z,22.90
2022-12-18T22:52:09.874Z,21.75
2022-12-18T22:54:37.405Z,16.05
2022-12-18T22:57:05.044Z,22.35
2022-12-18T22:59:32.562Z,21.48
2022-12-18T23:02:00.207Z,23.13
2022-12-18T23:04:36.252Z,22.85
2022-12-18T23:07:05.247Z,21.75
2022-12-18T23:09:33.365Z,21.05
2022-12-18T23:12:01.548Z,21.63
2022-12-18T23:14:30.058Z,22.17
2022-12-18T23:16:57.443Z,22.42
2022-12-18T23:19:25.273Z,23.52
2022-12-18T23:21:52.945Z,22.38
2022-12-18T23:24:22.372Z,21.98
2022-12-18T23:26:49.712Z,21.80
2022-12-18T23:29:17.073Z,21.10
2022-12-18T23:31:44.736Z,21.95
2022-12-18T23:34:14.372Z,22.05
2022-12-18T23:36:46.604Z,22.85
2022-12-18T23:39:28.392Z,22.08
2022-12-18T23:41:57.175Z,22.63
2022-12-18T23:44:24.827Z,20.42
2022-12-18T23:46:52.324Z,22.15
2022-12-18T23:49:19.916Z,21.30
2022-12-18T23:51:47.694Z,20.35
2022-12-18T23:54:15.233Z,22.83
2022-12-18T23:56:42.734Z,20.40
2022-12-18T23:59:10.236Z,22.10
